createdAt,value
2019-02-10T00:01:56.720Z,90.43
2019-02-10T00:04:27.887Z,84.30
2019-02-10T00:06:58.390Z,91.97
2019-02-10T00:09:28.921Z,97.70
2019-02-10T00:11:59.419Z,106.03
2019-02-10T00:14:29.897Z,103.40
2019-02-10T00:17:00.403Z,101.83
2019-02-10T00:19:32.792Z,103.10
2019-02-10T00:22:03.731Z,89.53
2019-02-10T00:24:34.231Z,95.40
2019-02-10T00:27:05.074Z,89.27
2019-02-10T00:29:35.575Z,95.60
2019-02-10T00:32:06.100Z,85.60
2019-02-10T00:34:36.597Z,87.20
2019-02-10T00:37:07.099Z,79.53
2019-02-10T00:39:37.563Z,92.03
2019-02-10T00:42:08.305Z,81.80
2019-02-10T00:44:38.783Z,79.97
2019-02-10T00:47:09.267Z,87.60
2019-02-10T00:49:39.726Z,98.43
2019-02-10T00:52:10.230Z,91.60
2019-02-10T00:54:40.725Z,88.57
2019-02-10T00:57:11.193Z,93.60
2019-02-10T00:59:41.692Z,95.97
2019-02-10T01:02:12.264Z,97.63
2019-02-10T01:04:42.768Z,85.80
2019-02-10T01:07:13.228Z,88.17
2019-02-10T01:09:43.731Z,94.20
2019-02-10T01:12:14.208Z,99.17
2019-02-10T01:14:44.715Z,92.77
2019-02-10T01:17:15.197Z,85.57
2019-02-10T01:19:45.690Z,99.83
2019-02-10T01:22:16.268Z,90.90
2019-02-10T01:24:46.775Z,83.80
2019-02-10T01:27:17.246Z,86.00
2019-02-10T01:29:47.810Z,89.53
2019-02-10T01:32:18.456Z,90.17
2019-02-10T01:34:48.934Z,88.83
2019-02-10T01:37:19.476Z,81.80
2019-02-10T01:39:50.136Z,84.03
2019-02-10T01:42:20.655Z,83.57
2019-02-10T01:44:51.560Z,91.00
2019-02-10T01:47:22.058Z,79.13
2019-02-10T01:49:52.573Z,86.43
2019-02-10T01:52:23.070Z,88.27
2019-02-10T01:54:53.636Z,85.53
2019-02-10T01:57:24.100Z,87.47
2019-02-10T01:59:54.608Z,90.33
2019-02-10T02:02:26.953Z,79.13
2019-02-10T02:04:58.179Z,79.80
2019-02-10T02:07:28.675Z,83.90
2019-02-10T02:09:59.163Z,88.07
2019-02-10T02:12:29.634Z,83.90
2019-02-10T02:15:00.309Z,85.13
2019-02-10T02:17:30.893Z,76.97
2019-02-10T02:20:01.386Z,83.60
2019-02-10T02:22:31.843Z,82.50
2019-02-10T02:25:02.326Z,80.93
2019-02-10T02:27:32.813Z,86.00
2019-02-10T02:30:03.377Z,87.73
2019-02-10T02:32:33.829Z,77.70
2019-02-10T02:35:04.871Z,75.83
2019-02-10T02:37:35.458Z,83.70
2019-02-10T02:40:09.334Z,74.43
2019-02-10T02:42:41.261Z,80.00
2019-02-10T02:45:14.855Z,73.17
2019-02-10T02:47:47.244Z,78.63
2019-02-10T02:50:17.718Z,72.80
2019-02-10T02:52:48.204Z,77.00
2019-02-10T02:55:18.681Z,76.83
2019-02-10T02:57:49.151Z,75.37
2019-02-10T03:00:19.661Z,75.90
2019-02-10T03:02:50.091Z,72.17
2019-02-10T03:05:24.339Z,84.37
2019-02-10T03:07:54.736Z,74.10
2019-02-10T03:10:25.217Z,78.23
2019-02-10T03:12:55.744Z,80.70
2019-02-10T03:15:26.234Z,78.50
2019-02-10T03:17:56.723Z,72.50
2019-02-10T03:20:29.347Z,73.53
2019-02-10T03:22:59.838Z,73.93
2019-02-10T03:25:31.959Z,75.70
2019-02-10T03:28:02.625Z,64.43
2019-02-10T03:30:33.089Z,83.90
2019-02-10T03:33:03.581Z,79.77
2019-02-10T03:35:34.112Z,77.80
2019-02-10T03:38:04.596Z,79.53
2019-02-10T03:40:35.077Z,78.33
2019-02-10T03:43:05.541Z,68.40
2019-02-10T03:45:36.198Z,79.93
2019-02-10T03:48:06.657Z,74.70
2019-02-10T03:50:38.679Z,73.77
2019-02-10T03:53:09.170Z,81.10
2019-02-10T03:55:39.657Z,70.30
2019-02-10T03:58:10.120Z,81.63
2019-02-10T04:00:42.552Z,80.93
2019-02-10T04:03:13.052Z,68.30
2019-02-10T04:05:44.874Z,82.70
2019-02-10T04:08:15.336Z,80.17
2019-02-10T04:10:45.821Z,75.20
2019-02-10T04:13:16.345Z,80.93
2019-02-10T04:15:47.284Z,79.17
2019-02-10T04:18:17.754Z,78.23
2019-02-10T04:20:48.212Z,74.67
2019-02-10T04:23:18.692Z,72.53
2019-02-10T04:25:49.154Z,80.50
2019-02-10T04:28:19.647Z,82.03
2019-02-10T04:30:51.174Z,76.73
2019-02-10T04:33:21.738Z,74.97
2019-02-10T04:35:52.190Z,73.53
2019-02-10T04:38:26.836Z,79.77
2019-02-10T04:40:57.289Z,78.73
2019-02-10T04:43:27.777Z,74.97
2019-02-10T04:45:58.239Z,81.43
2019-02-10T04:48:28.747Z,83.03
2019-02-10T04:51:00.793Z,76.03
2019-02-10T04:53:31.288Z,76.53
2019-02-10T04:56:14.467Z,77.77
2019-02-10T04:58:44.956Z,77.07
2019-02-10T05:01:17.002Z,83.17
2019-02-10T05:03:50.093Z,71.43
2019-02-10T05:06:20.584Z,73.30
2019-02-10T05:08:51.043Z,86.23
2019-02-10T05:11:22.568Z,79.00
2019-02-10T05:13:53.045Z,79.60
2019-02-10T05:16:23.523Z,77.47
2019-02-10T05:18:54.001Z,73.07
2019-02-10T05:21:26.950Z,83.97
2019-02-10T05:24:03.236Z,76.93
2019-02-10T05:26:29.597Z,75.03
2019-02-10T05:29:00.086Z,70.67
2019-02-10T05:31:30.564Z,69.13
2019-02-10T05:34:01.386Z,76.03
2019-02-10T05:36:31.847Z,65.13
2019-02-10T05:39:02.345Z,81.33
2019-02-10T05:41:32.802Z,72.93
2019-02-10T05:44:03.359Z,68.73
2019-02-10T05:46:34.524Z,71.47
2019-02-10T05:49:05.083Z,78.10
2019-02-10T05:51:35.567Z,80.37
2019-02-10T05:54:06.130Z,74.17
2019-02-10T05:56:36.590Z,76.80
2019-02-10T05:59:07.091Z,72.77
2019-02-10T06:02:07.961Z,72.13
2019-02-10T06:04:44.443Z,70.03
2019-02-10T06:07:18.742Z,76.70
2019-02-10T06:09:49.209Z,81.23
2019-02-10T06:12:19.649Z,74.17
2019-02-10T06:14:50.136Z,80.60
2019-02-10T06:17:20.593Z,63.30
2019-02-10T06:19:51.083Z,82.93
2019-02-10T06:22:21.549Z,82.23
2019-02-10T06:24:52.115Z,78.30
2019-02-10T06:27:23.621Z,75.53
2019-02-10T06:29:54.118Z,76.90
2019-02-10T06:32:24.580Z,85.33
2019-02-10T06:34:55.077Z,77.13
2019-02-10T06:37:25.586Z,80.30
2019-02-10T06:39:56.077Z,78.67
2019-02-10T06:42:26.533Z,82.13
2019-02-10T06:44:57.032Z,75.57
2019-02-10T06:47:27.491Z,87.40
2019-02-10T06:49:57.988Z,81.43
2019-02-10T06:52:28.441Z,82.47
2019-02-10T06:55:01.058Z,78.13
2019-02-10T06:57:31.513Z,84.07
2019-02-10T07:00:06.124Z,84.97
2019-02-10T07:02:58.674Z,76.47
2019-02-10T07:05:29.180Z,85.77
2019-02-10T07:07:59.646Z,79.87
2019-02-10T07:10:30.210Z,84.90
2019-02-10T07:13:00.680Z,79.47
2019-02-10T07:16:26.008Z,77.57
2019-02-10T07:19:43.140Z,85.87
2019-02-10T07:22:35.099Z,86.73
2019-02-10T07:25:16.198Z,88.50
2019-02-10T07:28:07.109Z,76.97
2019-02-10T07:31:01.810Z,76.93
2019-02-10T07:33:49.171Z,79.47
2019-02-10T07:36:24.371Z,86.43
2019-02-10T07:39:16.327Z,84.93
2019-02-10T07:42:17.465Z,82.17
2019-02-10T07:45:18.420Z,75.97
2019-02-10T07:48:02.149Z,79.77
2019-02-10T07:50:49.059Z,89.87
2019-02-10T07:53:24.270Z,81.80
2019-02-10T07:56:19.232Z,80.27
2019-02-10T07:59:11.710Z,85.53
2019-02-10T08:02:07.860Z,87.33
2019-02-10T08:05:20.210Z,82.87
2019-02-10T08:08:10.500Z,84.03
2019-02-10T08:11:20.556Z,82.73
2019-02-10T08:14:22.806Z,79.23
2019-02-10T08:17:00.864Z,73.07
2019-02-10T08:19:49.718Z,73.43
2019-02-10T08:22:54.758Z,82.57
2019-02-10T08:25:45.084Z,70.50
2019-02-10T08:28:38.219Z,83.90
2019-02-10T08:31:32.643Z,79.93
2019-02-10T08:34:30.178Z,80.97
2019-02-10T08:37:14.145Z,76.90
2019-02-10T08:40:17.694Z,81.53
2019-02-10T08:43:14.550Z,109.30
2019-02-10T08:46:01.246Z,85.90
2019-02-10T08:48:57.203Z,78.10
2019-02-10T08:51:43.864Z,79.03
2019-02-10T08:54:14.591Z,80.90
2019-02-10T08:56:45.055Z,71.20
2019-02-10T08:59:15.546Z,71.40
2019-02-10T09:01:46.975Z,72.27
2019-02-10T09:04:17.454Z,76.00
2019-02-10T09:06:47.911Z,80.87
2019-02-10T09:09:18.400Z,80.60
2019-02-10T09:11:48.858Z,75.03
2019-02-10T09:14:19.347Z,83.50
2019-02-10T09:16:49.807Z,80.13
2019-02-10T09:19:20.574Z,69.93
2019-02-10T09:21:51.248Z,71.13
2019-02-10T09:24:21.806Z,68.67
2019-02-10T09:26:52.296Z,78.50
2019-02-10T09:29:22.762Z,78.17
2019-02-10T09:31:53.259Z,72.40
2019-02-10T09:34:23.717Z,73.87
2019-02-10T09:36:54.216Z,75.43
2019-02-10T09:39:24.672Z,77.53
2019-02-10T09:41:55.173Z,76.30
2019-02-10T09:44:25.661Z,66.93
2019-02-10T09:46:56.119Z,73.07
2019-02-10T09:49:26.617Z,59.90
2019-02-10T09:51:57.126Z,70.50
2019-02-10T09:54:27.583Z,63.47
2019-02-10T09:56:58.072Z,52.30
2019-02-10T09:59:28.564Z,56.13
2019-02-10T10:01:59.017Z,50.00
2019-02-10T10:04:29.524Z,53.60
2019-02-10T10:06:59.991Z,51.63
2019-02-10T10:09:30.473Z,58.80
2019-02-10T10:12:00.986Z,52.67
2019-02-10T10:14:31.449Z,52.70
2019-02-10T10:17:01.929Z,54.03
2019-02-10T10:19:32.389Z,57.20
2019-02-10T10:22:02.900Z,73.07
2019-02-10T10:24:35.422Z,97.83
2019-02-10T10:27:05.612Z,62.63
2019-02-10T10:29:36.079Z,57.60
2019-02-10T10:32:06.578Z,47.37
2019-02-10T10:34:37.054Z,55.07
2019-02-10T10:37:07.536Z,52.73
2019-02-10T10:39:37.996Z,50.20
2019-02-10T10:42:08.510Z,49.63
2019-02-10T10:44:39.004Z,47.90
2019-02-10T10:47:09.465Z,45.77
2019-02-10T10:49:39.979Z,58.40
2019-02-10T10:52:10.431Z,52.50
2019-02-10T10:54:42.749Z,59.07
2019-02-10T10:57:13.068Z,54.13
2019-02-10T10:59:43.563Z,52.37
2019-02-10T11:02:14.895Z,61.77
2019-02-10T11:04:45.392Z,53.90
2019-02-10T11:07:15.857Z,45.13
2019-02-10T11:09:46.373Z,48.63
2019-02-10T11:12:16.865Z,51.30
2019-02-10T11:14:47.360Z,48.33
2019-02-10T11:17:17.824Z,55.00
2019-02-10T11:19:48.377Z,94.70
2019-02-10T11:22:18.794Z,62.97
2019-02-10T11:24:49.288Z,48.97
2019-02-10T11:27:19.747Z,51.60
2019-02-10T11:29:50.244Z,58.97
2019-02-10T11:32:20.783Z,50.70
2019-02-10T11:34:51.267Z,45.90
2019-02-10T11:37:26.776Z,43.43
2019-02-10T11:39:53.942Z,44.30
2019-02-10T11:42:26.094Z,41.33
2019-02-10T11:44:56.567Z,48.83
2019-02-10T11:47:27.133Z,48.00
2019-02-10T11:49:57.598Z,46.00
2019-02-10T11:52:28.084Z,44.10
2019-02-10T11:54:58.589Z,48.17
2019-02-10T11:57:29.910Z,44.30
2019-02-10T12:00:00.397Z,48.57
2019-02-10T12:02:37.922Z,41.23
2019-02-10T12:05:05.690Z,42.70
2019-02-10T12:07:37.734Z,41.33
2019-02-10T12:10:16.199Z,42.27
2019-02-10T12:12:47.804Z,40.40
2019-02-10T12:15:18.316Z,45.30
2019-02-10T12:17:48.795Z,45.87
2019-02-10T12:20:19.291Z,43.50
2019-02-10T12:22:50.510Z,40.57
2019-02-10T12:25:21.241Z,36.67
2019-02-10T12:27:51.680Z,41.00
2019-02-10T12:30:22.193Z,39.40
2019-02-10T12:32:52.650Z,39.87
2019-02-10T12:35:23.145Z,44.27
2019-02-10T12:37:53.610Z,47.07
2019-02-10T12:40:24.110Z,42.03
2019-02-10T12:42:54.586Z,37.30
2019-02-10T12:45:25.072Z,40.60
2019-02-10T12:47:55.531Z,41.60
2019-02-10T12:50:26.017Z,40.80
2019-02-10T12:52:56.486Z,42.67
2019-02-10T12:55:27.334Z,89.97
2019-02-10T12:57:57.935Z,57.10
2019-02-10T13:00:28.424Z,42.23
2019-02-10T13:02:58.930Z,48.90
2019-02-10T13:05:30.950Z,44.33
2019-02-10T13:08:01.530Z,58.60
2019-02-10T13:10:31.989Z,64.50
2019-02-10T13:13:02.482Z,50.37
2019-02-10T13:15:32.940Z,49.00
2019-02-10T13:18:03.504Z,44.50
2019-02-10T13:20:33.973Z,48.53
2019-02-10T13:23:04.456Z,52.37
2019-02-10T13:25:34.931Z,48.73
2019-02-10T13:28:05.727Z,47.03
2019-02-10T13:30:37.237Z,42.00
2019-02-10T13:33:07.867Z,43.37
2019-02-10T13:35:38.421Z,45.23
2019-02-10T13:38:08.879Z,47.47
2019-02-10T13:40:39.376Z,47.80
2019-02-10T13:43:09.928Z,45.27
2019-02-10T13:45:40.384Z,44.60
2019-02-10T13:48:10.877Z,47.57
2019-02-10T13:50:41.352Z,44.73
2019-02-10T13:53:11.914Z,42.60
2019-02-10T13:55:42.425Z,45.70
2019-02-10T13:58:12.936Z,47.27
2019-02-10T14:00:43.408Z,40.30
2019-02-10T14:03:13.918Z,45.30
2019-02-10T14:05:44.397Z,38.63
2019-02-10T14:08:14.898Z,51.50
2019-02-10T14:10:45.405Z,43.67
2019-02-10T14:13:15.856Z,45.10
2019-02-10T14:15:48.083Z,48.70
2019-02-10T14:18:18.565Z,47.70
2019-02-10T14:20:50.581Z,43.33
2019-02-10T14:23:22.985Z,45.47
2019-02-10T14:25:53.431Z,42.73
2019-02-10T14:28:23.920Z,43.20
2019-02-10T14:30:54.423Z,49.20
2019-02-10T14:33:24.928Z,42.90
2019-02-10T14:35:55.427Z,48.57
2019-02-10T14:38:25.881Z,95.43
2019-02-10T14:40:56.364Z,60.37
2019-02-10T14:43:26.835Z,55.80
2019-02-10T14:45:57.403Z,54.03
2019-02-10T14:48:27.891Z,47.53
2019-02-10T14:50:58.389Z,48.60
2019-02-10T14:53:28.894Z,50.93
2019-02-10T14:55:59.365Z,43.67
2019-02-10T14:58:29.859Z,49.80
2019-02-10T15:01:00.365Z,41.57
2019-02-10T15:03:30.819Z,46.43
2019-02-10T15:06:01.328Z,42.50
2019-02-10T15:08:31.820Z,47.13
2019-02-10T15:11:02.288Z,50.00
2019-02-10T15:13:32.784Z,47.73
2019-02-10T15:16:03.243Z,49.57
2019-02-10T15:18:33.759Z,52.83
2019-02-10T15:21:04.243Z,55.37
2019-02-10T15:23:34.823Z,49.03
2019-02-10T15:26:05.271Z,52.77
2019-02-10T15:28:35.778Z,53.83
2019-02-10T15:31:06.303Z,57.23
2019-02-10T15:33:36.797Z,50.43
2019-02-10T15:36:07.321Z,53.73
2019-02-10T15:38:37.777Z,50.70
2019-02-10T15:41:08.280Z,51.67
2019-02-10T15:43:38.747Z,50.80
2019-02-10T15:46:09.248Z,52.93
2019-02-10T15:48:39.747Z,56.90
2019-02-10T15:51:10.208Z,56.13
2019-02-10T15:53:40.720Z,58.30
2019-02-10T15:56:11.183Z,58.80
2019-02-10T15:58:42.538Z,57.80
2019-02-10T16:01:13.075Z,54.77
2019-02-10T16:03:49.628Z,55.33
2019-02-10T16:06:20.757Z,64.00
2019-02-10T16:08:52.659Z,52.83
2019-02-10T16:11:23.213Z,62.00
2019-02-10T16:13:53.724Z,59.20
2019-02-10T16:16:24.294Z,62.00
2019-02-10T16:18:54.753Z,70.97
2019-02-10T16:21:25.246Z,68.13
2019-02-10T16:23:55.702Z,73.70
2019-02-10T16:26:26.269Z,77.80
2019-02-10T16:28:56.731Z,83.67
2019-02-10T16:31:28.861Z,76.17
2019-02-10T16:33:59.366Z,66.93
2019-02-10T16:36:31.475Z,65.50
2019-02-10T16:39:02.045Z,67.17
2019-02-10T16:41:32.524Z,65.33
2019-02-10T16:44:06.848Z,66.97
2019-02-10T16:46:37.309Z,76.17
2019-02-10T16:49:07.808Z,73.90
2019-02-10T16:51:38.267Z,91.60
2019-02-10T16:54:09.757Z,77.83
2019-02-10T16:56:40.296Z,85.10
2019-02-10T16:59:11.471Z,80.37
2019-02-10T17:01:41.937Z,70.90
2019-02-10T17:04:14.953Z,80.67
2019-02-10T17:06:45.493Z,85.93
2019-02-10T17:09:16.615Z,82.60
2019-02-10T17:11:47.116Z,80.97
2019-02-10T17:14:17.622Z,81.27
2019-02-10T17:16:48.076Z,81.17
2019-02-10T17:19:18.608Z,90.07
2019-02-10T17:21:49.048Z,87.43
2019-02-10T17:24:19.533Z,90.63
2019-02-10T17:26:50.103Z,85.00
2019-02-10T17:29:20.593Z,87.13
2019-02-10T17:31:51.082Z,93.47
2019-02-10T17:34:24.382Z,97.37
2019-02-10T17:36:54.862Z,95.20
2019-02-10T17:39:25.377Z,107.67
2019-02-10T17:41:56.243Z,104.50
2019-02-10T17:44:26.747Z,103.80
2019-02-10T17:46:57.214Z,91.30
2019-02-10T17:49:27.707Z,103.97
2019-02-10T17:51:58.174Z,115.97
2019-02-10T17:54:29.344Z,113.13
2019-02-10T17:56:59.837Z,111.13
2019-02-10T17:59:30.342Z,111.03
2019-02-10T18:02:00.891Z,116.53
2019-02-10T18:04:37.328Z,114.23
2019-02-10T18:07:03.544Z,118.97
2019-02-10T18:09:34.042Z,113.80
2019-02-10T18:12:04.555Z,105.13
2019-02-10T18:14:36.671Z,102.87
2019-02-10T18:17:08.788Z,107.07
2019-02-10T18:19:46.699Z,112.70
2019-02-10T18:22:26.114Z,108.03
2019-02-10T18:25:14.453Z,115.77
2019-02-10T18:27:46.600Z,107.47
2019-02-10T18:30:19.138Z,118.60
2019-02-10T18:33:03.318Z,118.87
2019-02-10T18:35:42.052Z,173.30
2019-02-10T18:38:16.701Z,117.23
2019-02-10T18:40:51.551Z,112.87
2019-02-10T18:43:36.934Z,114.70
2019-02-10T18:46:25.165Z,117.07
2019-02-10T18:49:03.267Z,116.17
2019-02-10T18:51:35.362Z,119.63
2019-02-10T18:54:07.589Z,137.30
2019-02-10T18:56:42.409Z,129.47
2019-02-10T18:59:20.071Z,119.10
2019-02-10T19:02:08.481Z,119.47
2019-02-10T19:04:58.396Z,114.77
2019-02-10T19:07:33.893Z,112.93
2019-02-10T19:10:07.368Z,109.60
2019-02-10T19:12:48.762Z,117.23
2019-02-10T19:15:37.233Z,102.67
2019-02-10T19:18:12.332Z,107.50
2019-02-10T19:21:01.715Z,120.93
2019-02-10T19:23:38.224Z,110.27
2019-02-10T19:26:10.339Z,115.77
2019-02-10T19:28:42.485Z,105.70
2019-02-10T19:31:17.223Z,100.00
2019-02-10T19:33:49.375Z,102.23
2019-02-10T19:36:28.332Z,87.73
2019-02-10T19:39:04.676Z,105.73
2019-02-10T19:41:38.547Z,100.27
2019-02-10T19:44:17.384Z,88.80
2019-02-10T19:46:51.603Z,107.27
2019-02-10T19:49:32.454Z,94.37
2019-02-10T19:52:22.347Z,101.77
2019-02-10T19:54:55.141Z,92.70
2019-02-10T19:57:30.316Z,89.63
2019-02-10T20:00:06.453Z,90.03
2019-02-10T20:02:57.158Z,89.83
2019-02-10T20:05:39.334Z,90.37
2019-02-10T20:08:10.360Z,93.17
2019-02-10T20:10:40.601Z,82.97
2019-02-10T20:13:11.358Z,98.00
2019-02-10T20:15:50.578Z,95.97
2019-02-10T20:18:38.695Z,87.30
2019-02-10T20:21:13.432Z,84.93
2019-02-10T20:23:58.174Z,83.80
2019-02-10T20:26:32.981Z,101.30
2019-02-10T20:32:05.301Z,85.07
2019-02-10T20:34:37.449Z,94.07
2019-02-10T20:37:16.849Z,97.10
2019-02-10T20:39:49.041Z,90.60
2019-02-10T20:42:21.157Z,100.70
2019-02-10T20:45:08.323Z,90.87
2019-02-10T20:47:46.325Z,98.13
2019-02-10T20:50:21.398Z,99.60
2019-02-10T20:52:56.380Z,92.63
2019-02-10T20:55:28.500Z,108.67
2019-02-10T20:58:00.653Z,104.40
2019-02-10T21:00:48.539Z,99.80
2019-02-10T21:03:26.735Z,95.00
2019-02-10T21:05:58.837Z,91.03
2019-02-10T21:08:36.701Z,90.97
2019-02-10T21:11:20.814Z,83.77
2019-02-10T21:13:51.062Z,86.97
2019-02-10T21:16:23.178Z,79.63
2019-02-10T21:19:02.331Z,91.83
2019-02-10T21:21:43.420Z,86.33
2019-02-10T21:24:21.038Z,83.40
2019-02-10T21:26:53.140Z,86.20
2019-02-10T21:29:28.368Z,90.03
2019-02-10T21:32:01.814Z,92.97
2019-02-10T21:34:35.548Z,102.20
2019-02-10T21:37:10.341Z,87.57
2019-02-10T21:39:48.233Z,88.00
2019-02-10T21:42:28.925Z,83.17
2019-02-10T21:45:18.284Z,82.60
2019-02-10T21:47:50.670Z,81.07
2019-02-10T21:50:21.167Z,82.13
2019-02-10T21:52:51.633Z,85.63
2019-02-10T21:55:22.137Z,94.83
2019-02-10T21:57:52.589Z,93.23
2019-02-10T22:00:23.076Z,88.30
2019-02-10T22:02:53.539Z,86.57
2019-02-10T22:05:24.033Z,84.60
2019-02-10T22:07:54.505Z,80.20
2019-02-10T22:10:25.004Z,75.60
2019-02-10T22:12:55.452Z,87.57
2019-02-10T22:15:25.955Z,83.50
2019-02-10T22:17:56.490Z,82.70
2019-02-10T22:20:26.992Z,78.23
2019-02-10T22:22:57.453Z,91.57
2019-02-10T22:25:27.953Z,76.47
2019-02-10T22:27:58.413Z,76.90
2019-02-10T22:30:28.959Z,94.80
2019-02-10T22:32:59.444Z,88.80
2019-02-10T22:35:29.899Z,76.73
2019-02-10T22:38:03.863Z,80.47
2019-02-10T22:40:34.325Z,76.23
2019-02-10T22:43:04.855Z,79.43
2019-02-10T22:45:35.334Z,78.13
2019-02-10T22:48:05.797Z,75.00
2019-02-10T22:50:36.282Z,85.37
2019-02-10T22:53:06.741Z,82.53
2019-02-10T22:55:37.226Z,88.50
2019-02-10T22:58:08.256Z,77.20
2019-02-10T23:00:50.846Z,78.03
2019-02-10T23:03:21.444Z,75.63
2019-02-10T23:05:51.933Z,80.27
2019-02-10T23:08:22.409Z,79.23
2019-02-10T23:10:52.880Z,74.97
2019-02-10T23:13:23.363Z,78.83
2019-02-10T23:15:53.829Z,75.03
2019-02-10T23:18:24.376Z,79.90
2019-02-10T23:20:54.837Z,79.03
2019-02-10T23:23:26.664Z,71.70
2019-02-10T23:25:57.123Z,80.20
2019-02-10T23:28:27.609Z,81.10
2019-02-10T23:30:58.079Z,70.27
2019-02-10T23:33:28.570Z,88.77
2019-02-10T23:35:59.098Z,79.20
2019-02-10T23:38:29.561Z,81.37
2019-02-10T23:41:00.050Z,79.80
2019-02-10T23:43:30.516Z,74.77
2019-02-10T23:46:01.003Z,77.20
2019-02-10T23:48:31.468Z,78.57
2019-02-10T23:51:01.965Z,68.90
2019-02-10T23:53:32.435Z,77.90
2019-02-10T23:56:02.911Z,79.53
2019-02-10T23:58:33.362Z,78.17
